Time;durP1;ratioP1;P1;durP2;ratioP2;P2;SDS_P1;SDS_P2;PMS_P1;PMS_P2;Temp;Humidity;BMP_temperature;BMP_pressure;BME280_temperature;BME280_humidity;BME280_pressure;Samples;Min_cycle;Max_cycle;Signal;HPM_P1;HPM_P2
2021/10/03 00:00:55;;;;;;;4.47;2.80;;;18.20;77.90;;;;;;5076371;28;20063;-50
2021/10/03 00:03:22;;;;;;;4.97;3.20;;;18.10;78.20;;;;;;5058205;28;20052;-51
2021/10/03 00:05:51;;;;;;;3.63;2.25;;;18.10;78.40;;;;;;5075606;28;20041;-49
2021/10/03 00:08:16;;;;;;;4.80;2.83;;;18.00;79.10;;;;;;5075672;28;20031;-49
2021/10/03 00:10:49;;;;;;;5.57;3.47;;;17.90;80.10;;;;;;5075556;28;20112;-49
2021/10/03 00:13:15;;;;;;;3.78;2.95;;;17.80;80.60;;;;;;5074864;28;20020;-48
2021/10/03 00:15:41;;;;;;;6.50;3.25;;;17.70;81.60;;;;;;5074412;28;20364;-49
2021/10/03 00:18:08;;;;;;;6.00;3.15;;;17.50;82.30;;;;;;5074678;28;20042;-52
2021/10/03 00:20:35;;;;;;;7.50;3.22;;;17.40;82.80;;;;;;5056305;28;20028;-53
2021/10/03 00:23:01;;;;;;;4.50;3.00;;;17.30;83.70;;;;;;5074372;28;20043;-49
2021/10/03 00:25:28;;;;;;;5.60;3.55;;;17.30;84.10;;;;;;5074524;28;20028;-51
2021/10/03 00:27:54;;;;;;;5.07;3.47;;;17.30;83.80;;;;;;5075168;28;20028;-48
2021/10/03 00:30:21;;;;;;;1.92;1.75;;;17.30;83.50;;;;;;5073904;28;20146;-48
2021/10/03 00:32:47;;;;;;;4.20;2.40;;;17.30;83.30;;;;;;5074077;28;20024;-49
2021/10/03 00:35:13;;;;;;;5.15;3.15;;;17.30;83.50;;;;;;5073874;28;20154;-52
2021/10/03 00:37:39;;;;;;;5.50;3.72;;;17.30;83.70;;;;;;5073826;28;20025;-52
2021/10/03 00:40:07;;;;;;;7.45;3.53;;;17.30;83.80;;;;;;5073712;28;20032;-49
2021/10/03 00:42:33;;;;;;;5.53;3.60;;;17.30;84.00;;;;;;5073508;28;20028;-48
2021/10/03 00:44:58;;;;;;;4.25;2.78;;;17.30;84.10;;;;;;5073410;28;20024;-52
2021/10/03 00:47:24;;;;;;;3.90;3.03;;;17.30;84.10;;;;;;5073434;28;20066;-50
2021/10/03 00:49:50;;;;;;;3.15;2.13;;;17.30;84.20;;;;;;5073362;28;20441;-50
2021/10/03 00:52:16;;;;;;;3.92;2.53;;;17.30;84.40;;;;;;5073160;28;20025;-51
2021/10/03 00:54:42;;;;;;;4.63;2.60;;;17.20;85.00;;;;;;5073108;28;20048;-49
2021/10/03 00:57:07;;;;;;;5.85;2.83;;;17.30;85.00;;;;;;5073237;28;20409;-52
2021/10/03 00:59:34;;;;;;;3.97;3.20;;;17.10;85.90;;;;;;5072957;28;20461;-50
2021/10/03 01:02:01;;;;;;;3.63;2.20;;;17.10;86.00;;;;;;5072740;28;20060;-49
2021/10/03 01:04:26;;;;;;;4.82;2.53;;;17.00;86.30;;;;;;5072523;28;20108;-49
2021/10/03 01:06:52;;;;;;;3.65;2.42;;;17.00;86.40;;;;;;5054380;28;20025;-51
2021/10/03 01:09:19;;;;;;;9.25;2.33;;;16.90;86.50;;;;;;5073025;28;20411;-55
2021/10/03 01:11:46;;;;;;;4.22;2.88;;;17.00;86.20;;;;;;5072193;28;20024;-53
2021/10/03 01:14:12;;;;;;;3.83;2.85;;;17.10;85.90;;;;;;5072339;28;20028;-52
2021/10/03 01:16:39;;;;;;;3.00;2.42;;;17.20;85.20;;;;;;5072325;28;20088;-51
2021/10/03 01:19:04;;;;;;;3.42;2.50;;;17.20;85.20;;;;;;5072250;28;20036;-54
2021/10/03 01:21:31;;;;;;;3.30;2.90;;;17.10;85.60;;;;;;5054306;28;20028;-53
2021/10/03 01:23:57;;;;;;;2.97;2.58;;;17.00;86.10;;;;;;5072352;28;20021;-49
2021/10/03 01:26:23;;;;;;;3.05;2.70;;;17.10;85.50;;;;;;5072487;28;20483;-49
2021/10/03 01:28:53;;;;;;;4.43;2.33;;;17.20;85.20;;;;;;5072627;28;20025;-48
2021/10/03 01:31:19;;;;;;;3.47;2.50;;;17.20;85.00;;;;;;5072884;28;20024;-49
2021/10/03 01:33:45;;;;;;;3.28;2.55;;;17.30;84.50;;;;;;5072478;28;20491;-51
2021/10/03 01:36:11;;;;;;;3.30;2.72;;;17.30;84.40;;;;;;5072384;28;20099;-48
2021/10/03 01:38:38;;;;;;;3.13;2.70;;;17.30;84.00;;;;;;5054678;28;20123;-51
2021/10/03 01:41:04;;;;;;;5.13;2.58;;;17.30;83.90;;;;;;5072490;28;20046;-48
2021/10/03 01:43:30;;;;;;;3.15;2.83;;;17.30;83.50;;;;;;5072710;28;20115;-50
2021/10/03 01:45:56;;;;;;;5.18;2.83;;;17.30;83.50;;;;;;5072476;28;20103;-49
2021/10/03 01:48:24;;;;;;;3.15;2.53;;;17.30;83.70;;;;;;5072507;28;20049;-51
2021/10/03 01:50:53;;;;;;;3.50;2.75;;;17.20;84.10;;;;;;5072573;28;20012;-52
2021/10/03 01:53:27;;;;;;;3.85;3.20;;;17.20;84.30;;;;;;5072692;28;20020;-48
2021/10/03 01:55:54;;;;;;;3.38;2.50;;;17.30;83.70;;;;;;5072663;28;20392;-49
2021/10/03 01:58:25;;;;;;;3.63;2.55;;;17.20;84.10;;;;;;5072559;28;20036;-50
2021/10/03 02:00:52;;;;;;;;;;;17.30;83.70;;;;;;5055954;28;20029;-48
2021/10/03 02:03:18;;;;;;;7.22;3.53;;;17.30;83.20;;;;;;5072852;28;19905;-52
2021/10/03 02:05:45;;;;;;;3.35;2.40;;;17.40;82.50;;;;;;5072584;28;20056;-49
2021/10/03 02:08:13;;;;;;;4.38;3.45;;;17.40;82.40;;;;;;5054874;28;20594;-47
2021/10/03 02:10:42;;;;;;;5.50;2.08;;;17.40;82.50;;;;;;5072846;28;20142;-48
2021/10/03 02:13:09;;;;;;;2.40;2.20;;;17.50;81.60;;;;;;5072514;28;20096;-48
2021/10/03 02:15:36;;;;;;;4.63;2.30;;;17.60;80.90;;;;;;5072507;28;20082;-49
2021/10/03 02:18:07;;;;;;;2.70;1.85;;;17.70;80.60;;;;;;5072533;28;20044;-48
2021/10/03 02:20:33;;;;;;;3.42;2.30;;;17.70;80.00;;;;;;5072591;28;20436;-52
2021/10/03 02:22:59;;;;;;;4.43;2.30;;;17.70;80.00;;;;;;5073135;28;20059;-48
2021/10/03 02:25:25;;;;;;;4.05;2.22;;;17.70;80.40;;;;;;5072298;28;20054;-49
2021/10/03 02:27:50;;;;;;;3.35;2.50;;;17.70;79.70;;;;;;5072994;28;20024;-51
2021/10/03 02:30:16;;;;;;;3.10;1.90;;;17.80;79.60;;;;;;5072387;28;20048;-51
2021/10/03 02:32:42;;;;;;;6.05;2.60;;;17.70;79.90;;;;;;5072591;28;20021;-50
2021/10/03 02:35:10;;;;;;;2.83;2.10;;;17.80;79.20;;;;;;5072594;28;20047;-49
2021/10/03 02:37:37;;;;;;;2.83;2.25;;;17.80;79.20;;;;;;5072282;28;20074;-50
2021/10/03 02:40:05;;;;;;;4.10;2.10;;;17.70;79.30;;;;;;5072498;28;20425;-48
2021/10/03 02:42:30;;;;;;;2.85;2.10;;;17.70;79.50;;;;;;5072123;28;20024;-49
2021/10/03 02:44:56;;;;;;;3.33;1.80;;;17.70;79.40;;;;;;5072099;28;20499;-48
2021/10/03 02:47:22;;;;;;;2.38;2.17;;;17.70;79.20;;;;;;5073560;28;20036;-48
2021/10/03 02:49:47;;;;;;;2.78;1.65;;;17.80;78.70;;;;;;5076049;28;20029;-49
2021/10/03 02:52:13;;;;;;;3.20;1.75;;;17.80;78.60;;;;;;5076010;28;20024;-48
2021/10/03 02:54:41;;;;;;;3.35;2.00;;;17.80;78.80;;;;;;5075952;28;20370;-53
2021/10/03 02:57:07;;;;;;;2.80;2.05;;;17.80;78.80;;;;;;5076195;28;20468;-52
2021/10/03 02:59:34;;;;;;;1.75;1.50;;;17.80;78.40;;;;;;5075813;28;20027;-48
2021/10/03 03:01:59;;;;;;;4.93;1.90;;;17.80;78.30;;;;;;5076187;28;20103;-51
2021/10/03 03:04:25;;;;;;;5.95;1.85;;;17.80;78.60;;;;;;5075772;28;20138;-49
2021/10/03 03:06:51;;;;;;;2.15;1.67;;;17.80;78.80;;;;;;5076766;28;20028;-51
2021/10/03 03:09:17;;;;;;;1.73;1.55;;;17.70;79.70;;;;;;5075986;28;20024;-49
2021/10/03 03:11:43;;;;;;;3.40;1.80;;;17.70;79.70;;;;;;5075918;28;20530;-50
2021/10/03 03:14:09;;;;;;;2.03;1.33;;;17.60;79.80;;;;;;5075632;28;20032;-52
2021/10/03 03:16:46;;;;;;;2.35;1.52;;;17.50;80.70;;;;;;5075762;28;20029;-49
2021/10/03 03:19:12;;;;;;;4.70;2.30;;;17.30;81.60;;;;;;5075331;28;20079;-49
2021/10/03 03:21:38;;;;;;;4.00;2.10;;;17.30;81.50;;;;;;5075432;28;20020;-50
2021/10/03 03:24:06;;;;;;;2.92;1.80;;;17.30;81.40;;;;;;5075332;28;20099;-52
2021/10/03 03:26:32;;;;;;;4.18;2.42;;;17.30;81.40;;;;;;5075554;28;20472;-48
2021/10/03 03:28:58;;;;;;;2.53;1.65;;;17.20;82.20;;;;;;5075536;28;20025;-50
2021/10/03 03:31:24;;;;;;;3.20;2.90;;;17.10;82.70;;;;;;5075516;28;20031;-50
2021/10/03 03:33:49;;;;;;;6.05;2.38;;;17.00;83.10;;;;;;5075515;28;20070;-52
2021/10/03 03:36:15;;;;;;;5.03;2.17;;;16.90;83.40;;;;;;5075137;28;20025;-48
2021/10/03 03:38:40;;;;;;;2.05;1.83;;;16.90;83.50;;;;;;5075270;28;20060;-49
2021/10/03 03:41:06;;;;;;;5.50;2.63;;;16.80;83.40;;;;;;5075149;28;20047;-48
2021/10/03 03:43:33;;;;;;;8.10;2.63;;;16.80;84.00;;;;;;5075299;28;20032;-48
2021/10/03 03:45:59;;;;;;;4.25;2.33;;;16.80;83.60;;;;;;5075433;28;20032;-50
2021/10/03 03:48:24;;;;;;;3.38;2.38;;;16.70;84.10;;;;;;5057513;28;20365;-49
2021/10/03 03:50:50;;;;;;;3.97;2.35;;;16.60;84.50;;;;;;5075698;28;20031;-51
2021/10/03 03:53:16;;;;;;;3.63;2.85;;;16.60;84.00;;;;;;5075603;28;20012;-50
2021/10/03 03:55:42;;;;;;;4.65;2.63;;;16.70;84.00;;;;;;5057503;28;20143;-49
2021/10/03 03:58:07;;;;;;;3.13;2.83;;;16.60;84.40;;;;;;5074889;28;20032;-48
2021/10/03 04:00:33;;;;;;;6.85;3.65;;;16.70;84.10;;;;;;5075048;28;20025;-49
2021/10/03 04:02:59;;;;;;;3.60;3.00;;;16.60;84.10;;;;;;5075444;28;20039;-53
2021/10/03 04:05:24;;;;;;;9.73;2.88;;;16.70;83.90;;;;;;5074661;28;20392;-49
2021/10/03 04:07:50;;;;;;;6.15;2.85;;;16.70;83.80;;;;;;5074906;28;20025;-50
2021/10/03 04:10:16;;;;;;;5.53;3.22;;;16.70;83.80;;;;;;5074566;28;20161;-51
2021/10/03 04:12:42;;;;;;;5.82;3.08;;;16.60;84.70;;;;;;5074783;28;20043;-49
2021/10/03 04:15:08;;;;;;;3.88;2.83;;;16.50;84.80;;;;;;5074762;28;20025;-50
2021/10/03 04:17:35;;;;;;;7.18;3.75;;;16.60;84.50;;;;;;5074509;28;20021;-48
2021/10/03 04:20:00;;;;;;;4.97;3.90;;;16.60;84.80;;;;;;5074504;28;20032;-48
2021/10/03 04:22:27;;;;;;;3.40;3.03;;;16.60;84.70;;;;;;5074406;28;20404;-48
2021/10/03 04:24:53;;;;;;;5.20;3.50;;;16.50;85.00;;;;;;5056327;28;20207;-49
2021/10/03 04:27:19;;;;;;;4.95;4.25;;;16.40;85.70;;;;;;5074580;28;20101;-53
2021/10/03 04:29:44;;;;;;;4.53;3.88;;;16.30;86.50;;;;;;5074500;28;20025;-52
2021/10/03 04:32:10;;;;;;;8.82;4.13;;;16.30;86.40;;;;;;5074435;28;20104;-49
2021/10/03 04:34:36;;;;;;;5.47;3.58;;;16.30;86.60;;;;;;5074848;28;20468;-52
2021/10/03 04:37:02;;;;;;;6.25;4.05;;;16.40;86.30;;;;;;5074069;28;20040;-48
2021/10/03 04:39:28;;;;;;;7.05;4.40;;;16.30;86.50;;;;;;5074042;28;20503;-50
2021/10/03 04:41:54;;;;;;;6.82;4.05;;;16.30;86.80;;;;;;5056013;28;20029;-48
2021/10/03 04:44:20;;;;;;;5.43;3.58;;;16.30;86.70;;;;;;5074277;28;20108;-51
2021/10/03 04:46:45;;;;;;;6.75;4.55;;;16.30;86.70;;;;;;5073771;28;20456;-50
2021/10/03 04:49:11;;;;;;;5.53;4.38;;;16.30;87.20;;;;;;5074001;28;20447;-48
2021/10/03 04:51:37;;;;;;;9.25;4.53;;;16.30;86.60;;;;;;5073801;28;20024;-53
2021/10/03 04:54:02;;;;;;;7.75;4.00;;;16.40;86.40;;;;;;5073620;28;20025;-50
2021/10/03 04:56:28;;;;;;;5.00;3.85;;;16.40;86.40;;;;;;5073821;28;20067;-50
2021/10/03 04:58:54;;;;;;;6.45;4.43;;;16.40;86.20;;;;;;5073946;28;20028;-52
2021/10/03 05:01:20;;;;;;;6.22;4.25;;;16.50;86.20;;;;;;5073552;28;20025;-52
2021/10/03 05:03:46;;;;;;;5.93;4.32;;;16.40;86.60;;;;;;5073466;28;20031;-51
2021/10/03 05:06:12;;;;;;;7.18;4.82;;;16.50;86.30;;;;;;5074133;28;20037;-51
2021/10/03 05:08:38;;;;;;;8.52;4.75;;;16.40;86.40;;;;;;5073611;28;20111;-49
2021/10/03 05:11:04;;;;;;;6.20;4.47;;;16.30;86.80;;;;;;5072713;28;20112;-49
2021/10/03 05:13:30;;;;;;;7.18;4.53;;;16.30;87.10;;;;;;5073360;28;20082;-49
2021/10/03 05:15:56;;;;;;;5.78;4.47;;;16.40;87.10;;;;;;5073342;28;20472;-49
2021/10/03 05:18:22;;;;;;;7.45;4.53;;;16.30;86.80;;;;;;5073441;28;20127;-49
2021/10/03 05:20:48;;;;;;;7.95;5.60;;;16.40;86.60;;;;;;5074422;28;20038;-48
2021/10/03 05:23:14;;;;;;;8.65;5.20;;;16.40;86.70;;;;;;5073064;28;20333;-48
2021/10/03 05:25:39;;;;;;;6.97;4.80;;;16.30;87.10;;;;;;5073116;28;20385;-50
2021/10/03 05:28:05;;;;;;;7.13;5.43;;;16.30;87.10;;;;;;5073195;28;20473;-53
2021/10/03 05:30:31;;;;;;;7.15;4.78;;;16.30;87.70;;;;;;5055054;28;20508;-50
2021/10/03 05:32:56;;;;;;;6.60;4.90;;;16.30;87.70;;;;;;5073019;28;20020;-51
2021/10/03 05:35:22;;;;;;;7.97;4.80;;;16.30;87.40;;;;;;5055372;28;20032;-51
2021/10/03 05:37:48;;;;;;;6.70;5.15;;;16.30;87.70;;;;;;5072952;28;20118;-48
2021/10/03 05:40:15;;;;;;;7.57;5.43;;;16.40;87.30;;;;;;5073206;28;20024;-53
2021/10/03 05:42:41;;;;;;;10.13;5.47;;;16.30;87.30;;;;;;5073134;28;20026;-49
2021/10/03 05:45:07;;;;;;;8.82;5.47;;;16.30;87.20;;;;;;5054742;28;20032;-50
2021/10/03 05:47:33;;;;;;;7.50;5.10;;;16.30;87.40;;;;;;5073114;28;20031;-46
2021/10/03 05:49:59;;;;;;;8.38;5.60;;;16.30;87.70;;;;;;5073090;28;20028;-47
2021/10/03 05:52:25;;;;;;;9.52;6.60;;;16.30;87.50;;;;;;5072799;28;20025;-52
2021/10/03 05:54:50;;;;;;;8.13;5.25;;;16.30;88.20;;;;;;5072874;28;20028;-51
2021/10/03 05:57:18;;;;;;;8.38;5.65;;;16.20;88.40;;;;;;5054619;28;20028;-52
2021/10/03 05:59:44;;;;;;;7.35;5.68;;;16.30;88.20;;;;;;5072593;28;20032;-50
2021/10/03 06:02:10;;;;;;;8.52;6.03;;;16.30;87.90;;;;;;5072618;28;20059;-50
2021/10/03 06:04:36;;;;;;;11.00;6.05;;;16.30;88.30;;;;;;5072572;28;20044;-50
2021/10/03 06:07:02;;;;;;;15.50;6.50;;;16.30;88.40;;;;;;5073579;28;20421;-50
2021/10/03 06:09:28;;;;;;;10.68;6.82;;;16.30;88.60;;;;;;5072768;28;20525;-52
2021/10/03 06:11:54;;;;;;;8.32;6.07;;;16.30;88.70;;;;;;5072543;28;20013;-50
2021/10/03 06:14:19;;;;;;;8.75;6.45;;;16.30;88.90;;;;;;5072747;28;20012;-50
2021/10/03 06:16:45;;;;;;;10.38;6.72;;;16.30;89.00;;;;;;5072705;28;20116;-49
2021/10/03 06:19:11;;;;;;;11.85;6.13;;;16.30;89.20;;;;;;5072323;28;20023;-50
2021/10/03 06:21:39;;;;;;;10.30;6.38;;;16.30;89.20;;;;;;5074879;28;20120;-49
2021/10/03 06:24:05;;;;;;;8.27;5.82;;;16.30;89.70;;;;;;5077777;28;20035;-50
2021/10/03 06:26:31;;;;;;;10.90;6.20;;;16.30;89.60;;;;;;5077249;28;20033;-49
2021/10/03 06:28:56;;;;;;;8.20;6.45;;;16.30;89.80;;;;;;5076526;28;20017;-52
2021/10/03 06:31:22;;;;;;;8.55;6.43;;;16.30;89.40;;;;;;5076668;28;20461;-51
2021/10/03 06:33:47;;;;;;;11.23;6.18;;;16.40;89.20;;;;;;5058445;28;20540;-49
2021/10/03 06:36:13;;;;;;;10.80;6.90;;;16.30;89.30;;;;;;5058444;28;20503;-53
2021/10/03 06:38:39;;;;;;;10.10;6.68;;;16.50;88.60;;;;;;5076812;28;20511;-49
2021/10/03 06:41:05;;;;;;;14.52;6.60;;;16.40;89.00;;;;;;5076178;28;20109;-47
2021/10/03 06:43:35;;;;;;;15.27;7.43;;;16.40;89.40;;;;;;5076147;28;20029;-51
2021/10/03 06:46:05;;;;;;;8.20;5.70;;;16.40;89.40;;;;;;5076300;28;20032;-48
2021/10/03 06:48:31;;;;;;;10.25;7.03;;;16.40;89.70;;;;;;5076360;28;20098;-49
2021/10/03 06:50:57;;;;;;;13.98;7.38;;;16.50;89.30;;;;;;5076175;28;20098;-51
2021/10/03 06:53:23;;;;;;;9.00;6.03;;;16.50;89.10;;;;;;5076396;28;20024;-50
2021/10/03 06:55:48;;;;;;;14.30;8.05;;;16.50;89.30;;;;;;5076395;28;20025;-51
2021/10/03 06:58:15;;;;;;;10.30;6.68;;;16.50;89.30;;;;;;5076056;28;20032;-49
2021/10/03 07:00:41;;;;;;;12.13;7.32;;;16.60;89.30;;;;;;5058222;28;20025;-49
2021/10/03 07:03:07;;;;;;;10.50;6.75;;;16.50;89.30;;;;;;5076151;28;20444;-50
2021/10/03 07:05:32;;;;;;;10.68;7.13;;;16.50;89.20;;;;;;5075700;28;20045;-50
2021/10/03 07:07:58;;;;;;;11.27;6.18;;;16.50;89.50;;;;;;5075926;28;20020;-49
2021/10/03 07:10:24;;;;;;;8.63;7.15;;;16.60;89.30;;;;;;5075933;28;20100;-51
2021/10/03 07:12:52;;;;;;;10.60;6.43;;;16.50;89.10;;;;;;5076863;28;20103;-50
2021/10/03 07:15:18;;;;;;;8.70;6.18;;;16.50;89.10;;;;;;5076839;28;20472;-50
2021/10/03 07:17:44;;;;;;;8.45;6.75;;;16.60;89.10;;;;;;5076572;28;20169;-49
2021/10/03 07:20:10;;;;;;;13.27;7.38;;;16.60;89.00;;;;;;5076052;28;20025;-48
2021/10/03 07:22:36;;;;;;;18.00;6.32;;;16.60;89.10;;;;;;5058900;28;20021;-47
2021/10/03 07:25:02;;;;;;;9.45;5.90;;;16.80;88.20;;;;;;5076013;28;20350;-52
2021/10/03 07:27:27;;;;;;;12.38;7.63;;;16.80;88.30;;;;;;5075626;28;20385;-49
2021/10/03 07:29:54;;;;;;;9.32;6.38;;;16.80;88.50;;;;;;5075755;28;20016;-51
2021/10/03 07:32:20;;;;;;;9.52;6.15;;;16.80;88.60;;;;;;5075163;28;20024;-50
2021/10/03 07:34:46;;;;;;;10.63;6.72;;;16.80;87.90;;;;;;5057332;28;20029;-50
2021/10/03 07:37:12;;;;;;;10.73;7.55;;;16.80;88.30;;;;;;5075961;28;20037;-49
2021/10/03 07:39:38;;;;;;;12.82;6.10;;;16.70;89.00;;;;;;5057244;28;20113;-49
2021/10/03 07:42:05;;;;;;;8.52;5.93;;;16.80;88.60;;;;;;5074984;28;20036;-50
2021/10/03 07:44:31;;;;;;;7.50;5.65;;;16.80;88.60;;;;;;5077495;28;20088;-50
2021/10/03 07:46:56;;;;;;;10.32;6.88;;;16.70;89.10;;;;;;5076760;28;20493;-52
2021/10/03 07:49:22;;;;;;;10.05;7.35;;;16.80;88.60;;;;;;5075953;28;20372;-48
2021/10/03 07:51:48;;;;;;;7.82;5.28;;;16.80;88.50;;;;;;5075113;28;20032;-50
2021/10/03 07:54:13;;;;;;;7.85;5.93;;;16.80;88.80;;;;;;5074965;28;20070;-50
2021/10/03 07:56:39;;;;;;;12.18;6.47;;;16.80;89.00;;;;;;5075140;28;20030;-49
2021/10/03 07:59:04;;;;;;;12.32;6.63;;;16.80;88.80;;;;;;5075107;28;20056;-49
2021/10/03 08:01:30;;;;;;;13.73;8.68;;;16.80;88.70;;;;;;5074750;28;20031;-49
2021/10/03 08:03:57;;;;;;;9.02;5.97;;;16.80;88.30;;;;;;5074980;28;20075;-51
2021/10/03 08:06:23;;;;;;;13.07;6.68;;;16.80;88.40;;;;;;5057163;28;20055;-51
2021/10/03 08:08:49;;;;;;;13.18;6.45;;;16.80;88.70;;;;;;5040690;28;20071;-52
2021/10/03 08:11:15;;;;;;;8.50;6.65;;;16.80;88.70;;;;;;5075143;28;20025;-50
2021/10/03 08:13:41;;;;;;;10.85;6.07;;;16.80;88.60;;;;;;5056890;28;20103;-50
2021/10/03 08:16:10;;;;;;;10.88;7.25;;;16.80;88.90;;;;;;5074867;28;20066;-50
2021/10/03 08:18:36;;;;;;;11.45;6.85;;;16.80;89.20;;;;;;5074759;28;20441;-49
2021/10/03 08:21:03;;;;;;;10.98;6.25;;;16.80;89.20;;;;;;5075190;28;20070;-47
2021/10/03 08:23:28;;;;;;;10.77;6.43;;;16.70;89.40;;;;;;5056913;28;20419;-50
2021/10/03 08:25:54;;;;;;;12.32;6.50;;;16.70;89.60;;;;;;5074361;28;20054;-50
2021/10/03 08:28:20;;;;;;;12.23;6.88;;;16.70;89.70;;;;;;5074567;28;20511;-50
2021/10/03 08:30:46;;;;;;;11.60;6.38;;;16.60;89.70;;;;;;5057077;28;20031;-49
2021/10/03 08:33:12;;;;;;;14.52;6.35;;;16.70;90.00;;;;;;5074701;28;20028;-48
2021/10/03 08:35:38;;;;;;;11.02;6.97;;;16.70;89.90;;;;;;5056437;28;20029;-50
2021/10/03 08:38:04;;;;;;;11.27;6.40;;;16.80;89.60;;;;;;5056293;28;20032;-50
2021/10/03 08:40:29;;;;;;;10.32;5.97;;;16.80;89.30;;;;;;5074330;28;20060;-52
2021/10/03 08:42:55;;;;;;;7.72;5.93;;;16.80;89.40;;;;;;5074798;28;20028;-48
2021/10/03 08:45:21;;;;;;;12.40;6.90;;;16.80;89.20;;;;;;5073297;28;20412;-49
2021/10/03 08:47:47;;;;;;;7.68;6.30;;;16.70;89.70;;;;;;5073953;28;20043;-51
2021/10/03 08:50:15;;;;;;;10.27;6.78;;;16.80;89.00;;;;;;5073963;28;20024;-49
2021/10/03 08:52:42;;;;;;;12.82;6.40;;;16.70;89.80;;;;;;5074018;28;20032;-49
2021/10/03 08:55:10;;;;;;;13.65;7.38;;;16.70;89.90;;;;;;5074223;28;20033;-53
2021/10/03 08:57:36;;;;;;;10.05;6.55;;;16.60;90.10;;;;;;5074414;28;20055;-49
2021/10/03 09:00:19;;;;;;;9.30;7.07;;;16.70;89.80;;;;;;5073614;28;20029;-50
2021/10/03 09:02:54;;;;;;;12.38;6.85;;;16.70;89.90;;;;;;5073677;28;20081;-50
2021/10/03 09:05:20;;;;;;;9.30;5.97;;;16.70;89.70;;;;;;5073150;28;20050;-48
2021/10/03 09:07:57;;;;;;;11.50;6.93;;;16.70;89.90;;;;;;5055422;28;20024;-47
2021/10/03 09:10:23;;;;;;;10.18;6.78;;;16.80;89.70;;;;;;5056254;28;20025;-51
2021/10/03 09:12:49;;;;;;;13.90;6.90;;;16.80;90.10;;;;;;5073850;28;20028;-51
2021/10/03 09:15:20;;;;;;;8.73;6.13;;;16.80;89.80;;;;;;5055570;28;20380;-48
2021/10/03 09:18:05;;;;;;;10.27;6.90;;;16.90;89.10;;;;;;5073331;28;20150;-48
2021/10/03 09:20:31;;;;;;;9.95;6.70;;;16.80;89.80;;;;;;5055204;28;20163;-48
2021/10/03 09:23:05;;;;;;;12.13;6.60;;;16.80;89.80;;;;;;5073534;28;20040;-48
2021/10/03 09:25:44;;;;;;;7.65;5.93;;;16.80;90.10;;;;;;5056432;28;20032;-53
2021/10/03 09:28:24;;;;;;;7.85;6.30;;;16.70;90.50;;;;;;5073640;28;20021;-48
2021/10/03 09:30:58;;;;;;;10.55;6.22;;;16.80;90.20;;;;;;5073148;28;20052;-48
2021/10/03 09:33:24;;;;;;;10.63;7.10;;;16.70;90.10;;;;;;5073381;28;20024;-50
2021/10/03 09:35:59;;;;;;;12.13;6.80;;;16.80;90.20;;;;;;5073240;28;20036;-47
2021/10/03 09:38:28;;;;;;;10.48;6.47;;;16.80;89.90;;;;;;5073455;28;20048;-49
2021/10/03 09:41:03;;;;;;;10.30;6.85;;;16.80;90.20;;;;;;5073336;28;20097;-52
2021/10/03 09:43:49;;;;;;;8.90;5.65;;;16.80;90.10;;;;;;5072711;28;20029;-49
2021/10/03 09:46:46;;;;;;;10.88;6.97;;;16.90;89.60;;;;;;5072883;28;20027;-49
2021/10/03 09:49:25;;;;;;;12.35;6.30;;;16.80;90.00;;;;;;5073101;28;20419;-48
2021/10/03 09:51:52;;;;;;;8.35;6.03;;;16.80;90.20;;;;;;5072677;28;20020;-49
2021/10/03 09:54:19;;;;;;;8.60;5.57;;;16.90;89.90;;;;;;5073187;28;20048;-52
2021/10/03 09:56:46;;;;;;;9.00;6.93;;;16.90;90.30;;;;;;5073118;28;20422;-52
2021/10/03 09:59:12;;;;;;;9.25;7.32;;;17.00;90.30;;;;;;5072802;28;20029;-48
2021/10/03 10:01:46;;;;;;;12.60;7.25;;;17.00;89.90;;;;;;5072677;28;20032;-47
2021/10/03 10:04:14;;;;;;;9.85;6.50;;;17.00;89.80;;;;;;5072427;28;20081;-49
2021/10/03 10:06:44;;;;;;;12.38;6.75;;;17.10;89.90;;;;;;5072946;28;20048;-52
2021/10/03 10:09:16;;;;;;;7.10;6.13;;;17.10;89.70;;;;;;5072607;28;20020;-52
2021/10/03 10:12:06;;;;;;;10.48;7.15;;;17.10;90.10;;;;;;5072856;28;20036;-50
2021/10/03 10:14:35;;;;;;;7.00;5.95;;;17.10;89.80;;;;;;5061432;28;20032;-53
2021/10/03 10:17:31;;;;;;;5.72;4.88;;;17.20;89.50;;;;;;5072773;28;20059;-53
2021/10/03 10:20:03;;;;;;;7.72;5.20;;;17.30;89.60;;;;;;5074108;28;20039;-52
2021/10/03 10:22:36;;;;;;;8.32;5.40;;;17.20;89.40;;;;;;5054789;28;20025;-51
2021/10/03 10:25:07;;;;;;;8.52;5.90;;;17.30;89.10;;;;;;5072262;28;20029;-51
2021/10/03 10:27:32;;;;;;;12.77;6.68;;;17.20;89.60;;;;;;5072703;28;20369;-54
2021/10/03 10:29:59;;;;;;;7.43;5.65;;;17.30;89.70;;;;;;5072452;28;20025;-52
2021/10/03 10:32:57;;;;;;;8.35;6.18;;;17.30;89.20;;;;;;5072657;28;20417;-54
2021/10/03 10:35:34;;;;;;;9.25;6.03;;;17.30;89.60;;;;;;5072500;28;20074;-50
2021/10/03 10:38:03;;;;;;;7.80;5.32;;;17.30;89.40;;;;;;5072283;28;20058;-48
2021/10/03 10:40:34;;;;;;;9.32;5.95;;;17.30;89.40;;;;;;5072589;28;20468;-50
2021/10/03 10:43:02;;;;;;;8.95;6.10;;;17.40;89.50;;;;;;5072290;28;20033;-54
2021/10/03 10:45:28;;;;;;;7.55;5.85;;;17.40;89.30;;;;;;5072149;28;20029;-51
2021/10/03 10:48:08;;;;;;;7.88;6.40;;;17.40;89.50;;;;;;5072017;28;20031;-50
2021/10/03 10:50:49;;;;;;;6.13;5.40;;;17.40;89.20;;;;;;5072265;28;20029;-51
2021/10/03 10:53:21;;;;;;;8.13;5.78;;;17.40;89.30;;;;;;5072725;28;20469;-50
2021/10/03 10:56:18;;;;;;;10.15;5.85;;;17.40;89.60;;;;;;5072215;28;20031;-52
2021/10/03 10:58:52;;;;;;;13.57;7.50;;;17.30;89.90;;;;;;5072432;28;20040;-48
2021/10/03 11:01:34;;;;;;;8.68;5.57;;;17.30;89.80;;;;;;5071969;28;20051;-50
2021/10/03 11:04:09;;;;;;;8.60;6.47;;;17.30;89.70;;;;;;5071775;28;20064;-51
2021/10/03 11:06:35;;;;;;;8.32;6.00;;;17.10;90.60;;;;;;5072047;28;20332;-49
2021/10/03 11:09:04;;;;;;;11.00;6.10;;;17.20;90.60;;;;;;5074793;28;20096;-52
2021/10/03 11:11:37;;;;;;;14.98;6.55;;;17.10;90.60;;;;;;5075963;28;20028;-50
2021/10/03 11:14:05;;;;;;;11.98;6.25;;;17.20;90.70;;;;;;5076128;28;20044;-51
2021/10/03 11:16:34;;;;;;;10.55;5.85;;;17.20;90.60;;;;;;5075759;28;20028;-49
2021/10/03 11:19:16;;;;;;;12.35;6.53;;;17.30;90.10;;;;;;5075766;28;20075;-54
2021/10/03 11:21:47;;;;;;;16.88;7.38;;;17.30;90.20;;;;;;5075497;28;20093;-50
2021/10/03 11:24:24;;;;;;;11.18;5.90;;;17.30;90.00;;;;;;5075907;28;20341;-49
2021/10/03 11:26:59;;;;;;;13.00;8.35;;;17.30;90.00;;;;;;5075479;28;20443;-53
2021/10/03 11:29:27;;;;;;;8.35;6.40;;;17.30;90.30;;;;;;5075695;28;20090;-51
2021/10/03 11:31:57;;;;;;;9.85;6.78;;;17.20;90.60;;;;;;5075387;28;20451;-48
2021/10/03 11:34:40;;;;;;;9.10;6.35;;;17.30;90.20;;;;;;5075650;28;20063;-51
2021/10/03 11:37:16;;;;;;;7.70;5.70;;;17.30;90.00;;;;;;5075865;28;20413;-48
2021/10/03 11:39:50;;;;;;;9.25;5.95;;;17.20;90.20;;;;;;5075409;28;20490;-51
2021/10/03 11:42:30;;;;;;;9.65;5.38;;;17.30;90.20;;;;;;5075653;28;20108;-52
2021/10/03 11:45:20;;;;;;;8.87;6.03;;;17.30;90.00;;;;;;5075175;28;20353;-49
2021/10/03 11:48:01;;;;;;;10.57;7.18;;;17.30;90.00;;;;;;5074774;28;20263;-49
2021/10/03 11:50:33;;;;;;;9.65;6.15;;;17.30;90.00;;;;;;5075459;28;20025;-52
2021/10/03 11:53:20;;;;;;;9.77;6.90;;;17.30;90.20;;;;;;5075620;28;20020;-51
2021/10/03 11:55:48;;;;;;;9.63;7.22;;;17.30;90.50;;;;;;5075415;28;20028;-48
2021/10/03 11:58:17;;;;;;;11.88;7.50;;;17.30;90.40;;;;;;5074971;28;20024;-50
2021/10/03 12:01:02;;;;;;;14.45;8.25;;;17.30;90.50;;;;;;5075547;28;20059;-49
2021/10/03 12:03:30;;;;;;;12.38;8.13;;;17.30;90.80;;;;;;5075069;28;20031;-50
2021/10/03 12:05:56;;;;;;;9.90;7.22;;;17.30;91.20;;;;;;5075181;28;20048;-50
2021/10/03 12:08:22;;;;;;;10.43;6.68;;;17.20;91.30;;;;;;5074808;28;20445;-51
2021/10/03 12:10:50;;;;;;;10.93;6.50;;;17.20;91.50;;;;;;5074872;28;20056;-52
2021/10/03 12:13:18;;;;;;;8.73;6.72;;;17.10;91.70;;;;;;5074762;28;20556;-50
2021/10/03 12:15:51;;;;;;;9.18;6.60;;;17.10;91.90;;;;;;5074560;28;20070;-51
2021/10/03 12:18:29;;;;;;;10.13;6.45;;;17.10;92.00;;;;;;5074463;28;20069;-50
2021/10/03 12:21:02;;;;;;;9.13;6.90;;;17.10;92.00;;;;;;5074394;28;20025;-51
2021/10/03 12:23:45;;;;;;;8.70;6.35;;;17.20;91.70;;;;;;5074464;28;20024;-51
2021/10/03 12:26:25;;;;;;;10.90;6.55;;;17.30;91.10;;;;;;5074088;28;20078;-53
2021/10/03 12:28:54;;;;;;;10.23;7.63;;;17.30;91.00;;;;;;5074428;28;20020;-48
2021/10/03 12:31:51;;;;;;;9.23;6.30;;;17.40;90.30;;;;;;5074045;28;20017;-51
2021/10/03 12:34:17;;;;;;;9.45;5.90;;;17.50;89.60;;;;;;5074185;28;20103;-50
2021/10/03 12:36:53;;;;;;;12.82;6.10;;;17.40;89.70;;;;;;5074003;28;20071;-53
2021/10/03 12:39:23;;;;;;;8.48;5.90;;;17.50;89.80;;;;;;5073973;28;20467;-52
2021/10/03 12:41:54;;;;;;;8.55;5.90;;;17.60;89.30;;;;;;5073836;28;20074;-52
2021/10/03 12:44:23;;;;;;;;;;;17.60;89.10;;;;;;5074225;28;20097;-50
2021/10/03 12:46:48;;;;;;;7.40;5.53;;;17.70;89.00;;;;;;5073713;28;19912;-54
2021/10/03 12:49:14;;;;;;;14.35;7.22;;;17.50;89.60;;;;;;5073991;28;20381;-53
2021/10/03 12:51:40;;;;;;;7.85;5.63;;;17.60;89.70;;;;;;5039241;28;20098;-49